Decoded Metar for VOML (MANGALORE in INDIA) (IATA:IXE) | Meteo·Mobile Aviation Weather
aviador You're here:

VOML Decoded Metar

MANGALORE in INDIA
Report Time2019-08-19 18:30:00
UTC Time2019-08-19 18:36:08
Flight Rules mvfr MVFR
WindCalm
Visibility6000 m
Phenomena:N/A
Clouds:Scattered 012 Hf
Broken 080 Hf
Expected CloudBase > 800 ft AGL from Temp-Dew spread
Ceiling8,000 ft
Temp26°C (ISA +12)
Dew Point24°C (89% RH)
QNH1011 hPa
Density Alt2,146 ft
Elevation338 ft
Report Wrong Elevation
Raw Report
METAR VOML 191830Z 00000KT 6000 SCT012 BKN080 26/24 Q1011 NOSIG=

Extra information for VOML:More info

Metar Taf Metar & Taf Last 4 Metars F.Rules Stats Wind Profile Meteogram Temp Stats Airport Information Weather charts Add Link Nearby VenuesMetar ALERT Operation Metar Decoded Social comments